createdAt,value
2019-04-22T00:00:55.984Z,16.83
2019-04-22T00:03:34.996Z,19.30
2019-04-22T00:06:21.095Z,17.60
2019-04-22T00:08:57.678Z,16.07
2019-04-22T00:11:38.464Z,18.33
2019-04-22T00:13:57.056Z,17.03
2019-04-22T00:16:33.805Z,21.13
2019-04-22T00:19:08.956Z,18.23
2019-04-22T00:21:33.327Z,17.00
2019-04-22T00:23:59.110Z,21.03
2019-04-22T00:29:13.838Z,17.67
2019-04-22T00:34:45.472Z,20.17
2019-04-22T00:37:19.209Z,20.60
2019-04-22T00:39:48.852Z,17.90
2019-04-22T00:42:24.310Z,18.00
2019-04-22T00:44:56.890Z,19.97
2019-04-22T00:47:29.200Z,18.87
2019-04-22T00:52:28.280Z,18.37
2019-04-22T00:54:59.448Z,15.97
2019-04-22T00:57:27.848Z,17.67
2019-04-22T00:59:58.571Z,18.27
2019-04-22T01:02:34.231Z,18.57
2019-04-22T01:05:00.721Z,17.13
2019-04-22T01:07:30.439Z,20.50
2019-04-22T01:10:06.958Z,16.97
2019-04-22T01:12:39.223Z,17.53
2019-04-22T01:15:09.233Z,17.10
2019-04-22T01:17:39.376Z,17.00
2019-04-22T01:20:24.606Z,17.27
2019-04-22T01:22:34.323Z,21.13
2019-04-22T01:25:08.545Z,19.37
2019-04-22T01:27:34.877Z,18.77
2019-04-22T01:30:04.624Z,20.37
2019-04-22T01:32:30.455Z,21.37
2019-04-22T01:35:08.351Z,20.07
2019-04-22T01:37:45.906Z,18.97
2019-04-22T01:40:24.138Z,19.70
2019-04-22T01:42:55.856Z,21.43
2019-04-22T01:45:25.724Z,20.03
2019-04-22T01:47:56.397Z,18.53
2019-04-22T01:50:27.765Z,19.67
2019-04-22T01:52:58.624Z,21.17
2019-04-22T01:55:31.076Z,24.07
2019-04-22T01:57:53.671Z,23.97
2019-04-22T02:00:38.444Z,22.13
2019-04-22T02:03:05.561Z,24.17
2019-04-22T02:05:29.024Z,24.97
2019-04-22T02:08:09.683Z,22.80
2019-04-22T02:10:39.837Z,23.80
2019-04-22T02:13:08.304Z,22.87
2019-04-22T02:15:39.637Z,24.77
2019-04-22T02:18:18.322Z,25.40
2019-04-22T02:20:43.276Z,31.90
2019-04-22T02:26:07.625Z,24.77
2019-04-22T02:28:38.226Z,24.80
2019-04-22T02:51:28.519Z,34.23
2019-04-22T02:56:27.523Z,31.60
2019-04-22T03:06:30.775Z,31.90
2019-04-22T03:16:32.045Z,32.63
2019-04-22T03:19:02.847Z,34.37
2019-04-22T03:21:33.752Z,31.97
2019-04-22T03:26:49.877Z,32.03
2019-04-22T03:29:04.557Z,33.67
2019-04-22T03:42:07.560Z,32.93
2019-04-22T03:49:49.903Z,34.70
2019-04-22T03:57:33.902Z,32.30
2019-04-22T03:59:41.477Z,36.77
2019-04-22T04:02:29.197Z,35.20
2019-04-22T04:04:37.156Z,32.87
2019-04-22T04:07:20.514Z,33.17
2019-04-22T04:12:12.295Z,30.83
2019-04-22T04:14:55.680Z,32.23
2019-04-22T04:17:22.468Z,32.83
2019-04-22T04:22:30.255Z,31.77
2019-04-22T04:27:53.812Z,32.60
2019-04-22T04:30:05.548Z,32.33
2019-04-22T04:32:36.445Z,33.17
2019-04-22T04:37:40.889Z,29.73
2019-04-22T04:40:11.827Z,33.07
2019-04-22T04:42:41.369Z,31.27
2019-04-22T04:50:09.787Z,30.67
2019-04-22T04:55:18.532Z,31.97
2019-04-22T04:57:43.585Z,31.17
2019-04-22T05:00:39.456Z,29.87
2019-04-22T05:02:44.677Z,32.80
2019-04-22T05:05:12.074Z,31.10
2019-04-22T05:07:41.728Z,33.83
2019-04-22T05:12:53.118Z,34.67
2019-04-22T05:17:43.638Z,31.90
2019-04-22T05:20:29.004Z,30.23
2019-04-22T05:27:46.892Z,33.57
2019-04-22T05:35:23.029Z,28.63
2019-04-22T05:37:50.016Z,29.27
2019-04-22T05:40:25.461Z,30.30
2019-04-22T05:42:51.520Z,29.37
2019-04-22T05:45:19.150Z,28.70
2019-04-22T05:47:52.055Z,30.27
2019-04-22T05:52:57.071Z,26.10
2019-04-22T05:55:33.244Z,31.33
2019-04-22T06:00:47.358Z,33.03
2019-04-22T06:05:35.838Z,30.80
2019-04-22T06:08:04.120Z,31.27
2019-04-22T06:13:04.464Z,27.90
2019-04-22T06:15:37.268Z,26.53
2019-04-22T06:21:00.489Z,30.87
2019-04-22T06:23:25.618Z,31.23
2019-04-22T06:26:07.384Z,30.80
2019-04-22T06:33:27.389Z,34.97
2019-04-22T06:41:07.363Z,30.30
2019-04-22T06:43:34.952Z,34.30
2019-04-22T06:46:06.358Z,37.03
2019-04-22T06:48:29.801Z,31.97
2019-04-22T06:51:00.555Z,32.87
2019-04-22T06:53:34.449Z,30.27
2019-04-22T06:56:05.105Z,31.10
2019-04-22T06:58:42.509Z,35.80
2019-04-22T07:01:09.881Z,30.43
2019-04-22T07:06:17.574Z,35.13
2019-04-22T07:09:08.813Z,33.00
2019-04-22T07:11:07.929Z,30.57
2019-04-22T07:14:01.684Z,34.43
2019-04-22T07:16:20.785Z,32.03
2019-04-22T07:18:48.427Z,31.93
2019-04-22T07:21:12.521Z,32.53
2019-04-22T07:24:03.095Z,34.57
2019-04-22T07:26:21.885Z,34.63
2019-04-22T07:28:50.530Z,38.33
2019-04-22T07:31:20.545Z,36.60
2019-04-22T07:33:51.979Z,31.40
2019-04-22T07:36:49.018Z,32.77
2019-04-22T07:38:56.485Z,31.77
2019-04-22T07:41:27.371Z,31.57
2019-04-22T07:44:13.887Z,34.97
2019-04-22T07:46:33.628Z,32.60
2019-04-22T07:49:06.549Z,35.67
2019-04-22T07:51:32.662Z,36.07
2019-04-22T07:54:01.289Z,39.37
2019-04-22T07:56:36.699Z,37.40
2019-04-22T07:59:09.470Z,33.47
2019-04-22T08:01:35.529Z,36.23
2019-04-22T08:04:21.650Z,36.57
2019-04-22T08:06:38.712Z,38.33
2019-04-22T08:09:13.923Z,41.63
2019-04-22T08:11:51.592Z,34.77
2019-04-22T08:14:18.817Z,35.23
2019-04-22T08:16:45.169Z,35.00
2019-04-22T08:19:24.940Z,38.17
2019-04-22T08:21:45.492Z,35.03
2019-04-22T08:24:18.439Z,36.50
2019-04-22T08:26:51.760Z,39.67
2019-04-22T08:29:21.983Z,35.97
2019-04-22T08:34:21.239Z,36.67
2019-04-22T08:37:12.381Z,37.97
2019-04-22T08:41:45.314Z,38.80
2019-04-22T08:44:42.578Z,39.63
2019-04-22T08:47:04.220Z,40.80
2019-04-22T08:49:34.548Z,34.67
2019-04-22T08:52:01.292Z,39.83
2019-04-22T08:54:30.885Z,39.30
2019-04-22T08:57:03.136Z,34.80
2019-04-22T08:59:28.386Z,39.60
2019-04-22T09:02:09.315Z,37.83
2019-04-22T09:04:30.559Z,33.40
2019-04-22T09:09:37.906Z,35.27
2019-04-22T09:14:41.705Z,35.67
2019-04-22T09:17:17.968Z,36.00
2019-04-22T09:19:40.496Z,36.37
2019-04-22T09:22:17.251Z,35.03
2019-04-22T09:24:43.547Z,38.37
2019-04-22T09:29:42.990Z,37.27
2019-04-22T09:32:18.890Z,36.60
2019-04-22T09:34:47.653Z,43.03
2019-04-22T09:40:12.136Z,42.43
2019-04-22T09:42:24.708Z,40.33
2019-04-22T09:47:30.811Z,41.97
2019-04-22T09:50:03.684Z,39.63
2019-04-22T09:52:23.996Z,38.90
2019-04-22T09:55:12.457Z,43.17
2019-04-22T09:57:24.902Z,36.53
2019-04-22T10:00:02.261Z,48.27
2019-04-22T10:02:38.844Z,39.30
2019-04-22T10:05:07.924Z,39.73
2019-04-22T10:07:31.898Z,41.33
2019-04-22T10:10:09.048Z,39.00
2019-04-22T10:12:41.621Z,35.80
2019-04-22T10:15:19.591Z,34.97
2019-04-22T10:17:37.960Z,38.83
2019-04-22T10:25:10.774Z,34.73
2019-04-22T10:27:45.537Z,38.17
2019-04-22T10:30:15.122Z,38.53
2019-04-22T10:32:44.672Z,34.23
2019-04-22T10:35:12.239Z,31.93
2019-04-22T10:37:36.621Z,34.17
2019-04-22T10:40:11.211Z,36.77
2019-04-22T10:42:43.398Z,35.03
2019-04-22T10:45:14.463Z,38.43
2019-04-22T10:47:43.975Z,33.60
2019-04-22T10:50:14.778Z,36.50
2019-04-22T10:52:45.484Z,35.73
2019-04-22T10:55:15.121Z,34.67
2019-04-22T10:57:46.375Z,32.13
2019-04-22T11:00:17.683Z,32.60
2019-04-22T11:02:47.845Z,30.47
2019-04-22T11:05:17.293Z,32.70
2019-04-22T11:07:53.772Z,32.20
2019-04-22T11:10:35.134Z,33.60
2019-04-22T11:12:49.438Z,34.00
2019-04-22T11:15:19.252Z,35.93
2019-04-22T11:17:49.582Z,30.80
2019-04-22T11:20:19.884Z,30.40
2019-04-22T11:22:50.938Z,29.97
2019-04-22T11:25:21.676Z,28.37
2019-04-22T11:27:51.413Z,31.23
2019-04-22T11:30:24.314Z,40.00
2019-04-22T11:32:52.158Z,26.63
2019-04-22T11:35:21.962Z,28.53
2019-04-22T11:37:52.433Z,38.50
2019-04-22T11:40:29.821Z,29.03
2019-04-22T11:42:54.525Z,32.90
2019-04-22T11:45:24.110Z,31.47
2019-04-22T11:47:53.480Z,37.53
2019-04-22T11:50:26.126Z,27.00
2019-04-22T11:52:55.714Z,27.43
2019-04-22T11:55:26.676Z,28.00
2019-04-22T11:57:56.495Z,25.57
2019-04-22T12:00:32.857Z,22.60
2019-04-22T12:03:03.187Z,28.97
2019-04-22T12:05:34.215Z,26.83
2019-04-22T12:08:05.017Z,24.37
2019-04-22T12:10:42.504Z,22.33
2019-04-22T12:13:06.300Z,20.57
2019-04-22T12:15:37.331Z,26.97
2019-04-22T12:18:09.012Z,21.37
2019-04-22T12:20:39.188Z,21.73
2019-04-22T12:23:09.438Z,19.87
2019-04-22T12:25:46.481Z,21.60
2019-04-22T12:28:11.071Z,18.90
2019-04-22T12:30:41.723Z,17.27
2019-04-22T12:33:14.765Z,20.27
2019-04-22T12:35:42.361Z,20.93
2019-04-22T12:38:14.357Z,20.73
2019-04-22T12:40:52.273Z,18.93
2019-04-22T12:43:16.092Z,16.20
2019-04-22T12:45:44.982Z,21.80
2019-04-22T12:48:14.980Z,19.40
2019-04-22T12:50:47.777Z,17.63
2019-04-22T12:53:19.753Z,18.97
2019-04-22T12:55:48.082Z,21.00
2019-04-22T12:58:18.099Z,20.90
2019-04-22T13:00:48.417Z,18.27
2019-04-22T13:03:18.210Z,24.60
2019-04-22T13:05:49.341Z,18.77
2019-04-22T13:08:20.003Z,18.23
2019-04-22T13:10:58.403Z,20.77
2019-04-22T13:13:20.834Z,17.03
2019-04-22T13:15:51.055Z,18.37
2019-04-22T13:18:31.037Z,16.23
2019-04-22T13:20:52.823Z,16.27
2019-04-22T13:23:22.283Z,14.13
2019-04-22T13:25:52.661Z,17.27
2019-04-22T13:28:23.011Z,15.97
2019-04-22T13:30:52.811Z,13.87
2019-04-22T13:33:23.192Z,15.87
2019-04-22T13:35:54.240Z,13.30
2019-04-22T13:38:24.982Z,20.57
2019-04-22T13:41:09.760Z,15.77
2019-04-22T13:43:26.745Z,14.00
2019-04-22T13:45:56.415Z,15.17
2019-04-22T13:48:46.578Z,16.70
2019-04-22T13:54:36.302Z,13.27
2019-04-22T13:56:19.359Z,16.30
2019-04-22T13:58:46.138Z,15.23
2019-04-22T14:01:06.975Z,17.00
2019-04-22T14:04:02.657Z,19.97
2019-04-22T14:06:32.192Z,18.23
2019-04-22T14:09:03.116Z,14.30
2019-04-22T14:11:41.612Z,18.97
2019-04-22T14:14:05.101Z,15.43
2019-04-22T14:16:35.280Z,15.30
2019-04-22T14:19:05.689Z,17.83
2019-04-22T14:21:36.825Z,17.87
2019-04-22T14:24:07.053Z,18.23
2019-04-22T14:26:52.351Z,17.67
2019-04-22T14:29:08.818Z,19.47
2019-04-22T14:31:38.408Z,19.43
2019-04-22T14:34:12.013Z,16.50
2019-04-22T14:36:41.596Z,18.53
2019-04-22T14:39:12.283Z,17.93
2019-04-22T14:41:57.461Z,19.13
2019-04-22T14:47:15.733Z,24.37
2019-04-22T14:49:36.448Z,19.93
2019-04-22T14:52:13.278Z,24.43
2019-04-22T14:54:31.013Z,22.33
2019-04-22T14:56:48.651Z,20.53
2019-04-22T14:59:18.899Z,21.60
2019-04-22T15:01:49.655Z,21.57
2019-04-22T15:04:19.415Z,18.60
2019-04-22T15:06:50.389Z,20.50
2019-04-22T15:09:19.879Z,23.47
2019-04-22T15:11:58.198Z,21.83
2019-04-22T15:14:21.495Z,27.30
2019-04-22T15:17:18.814Z,23.60
2019-04-22T15:19:54.060Z,21.70
2019-04-22T15:22:23.377Z,24.47
2019-04-22T15:24:52.731Z,23.83
2019-04-22T15:27:22.596Z,22.43
2019-04-22T15:29:53.580Z,21.10
2019-04-22T15:32:23.444Z,24.10
2019-04-22T15:34:53.417Z,21.80
2019-04-22T15:37:24.266Z,22.77
2019-04-22T15:39:56.317Z,22.20
2019-04-22T15:42:28.794Z,23.87
2019-04-22T15:44:56.104Z,23.07
2019-04-22T15:47:26.895Z,22.53
2019-04-22T15:49:56.506Z,22.10
2019-04-22T15:52:34.940Z,24.73
2019-04-22T15:54:58.497Z,26.77
2019-04-22T15:57:28.915Z,24.27
2019-04-22T16:00:14.669Z,23.60
2019-04-22T16:02:29.837Z,25.00
2019-04-22T16:04:59.277Z,23.53
2019-04-22T16:07:29.777Z,24.40
2019-04-22T16:09:59.664Z,25.27
2019-04-22T16:12:38.840Z,24.33
2019-04-22T16:15:03.106Z,25.10
2019-04-22T16:17:32.681Z,24.63
2019-04-22T16:20:03.548Z,24.77
2019-04-22T16:22:52.012Z,28.93
2019-04-22T16:25:41.066Z,26.53
2019-04-22T16:28:11.122Z,25.80
2019-04-22T16:30:41.391Z,24.73
2019-04-22T16:33:10.987Z,25.37
2019-04-22T16:35:40.574Z,28.43
2019-04-22T16:38:10.898Z,28.13
2019-04-22T16:40:40.900Z,27.30
2019-04-22T16:43:13.118Z,28.43
2019-04-22T16:45:41.427Z,29.17
2019-04-22T16:48:11.603Z,33.07
2019-04-22T16:50:43.597Z,25.70
2019-04-22T16:53:14.177Z,26.77
2019-04-22T16:55:44.713Z,28.70
2019-04-22T16:58:14.827Z,28.17
2019-04-22T17:00:45.045Z,28.83
2019-04-22T17:03:42.883Z,26.27
2019-04-22T17:06:21.531Z,12.30
2019-04-22T17:08:51.159Z,10.10
2019-04-22T17:11:22.028Z,9.37
2019-04-22T17:13:52.915Z,8.63
2019-04-22T17:16:24.337Z,7.67
2019-04-22T17:18:54.245Z,6.93
2019-04-22T17:21:23.773Z,7.13
2019-04-22T17:23:53.942Z,12.77
2019-04-22T17:26:24.357Z,7.50
2019-04-22T17:28:55.411Z,8.83
2019-04-22T17:31:24.933Z,6.67
2019-04-22T17:33:54.944Z,9.67
2019-04-22T17:36:24.440Z,9.57
2019-04-22T17:39:12.622Z,7.93
2019-04-22T17:41:41.831Z,9.53
2019-04-22T17:44:28.759Z,7.83
2019-04-22T17:46:51.386Z,9.47
2019-04-22T17:49:37.697Z,10.10
2019-04-22T17:55:04.538Z,11.40
2019-04-22T17:57:23.921Z,10.70
2019-04-22T17:59:54.690Z,9.50
2019-04-22T18:02:25.248Z,10.23
2019-04-22T18:04:46.759Z,10.00
2019-04-22T18:07:35.490Z,9.47
2019-04-22T18:12:38.589Z,8.90
2019-04-22T18:17:41.136Z,9.53
2019-04-22T18:20:04.358Z,10.17
2019-04-22T18:22:31.125Z,8.20
2019-04-22T18:25:01.004Z,8.40
2019-04-22T18:27:48.929Z,12.70
2019-04-22T18:30:03.904Z,10.53
2019-04-22T18:32:42.457Z,24.57
2019-04-22T18:35:14.297Z,21.20
2019-04-22T18:37:49.944Z,25.43
2019-04-22T18:40:15.137Z,31.63
2019-04-22T18:42:52.424Z,31.57
2019-04-22T18:45:35.766Z,33.50
2019-04-22T18:47:46.581Z,32.57
2019-04-22T18:50:34.133Z,32.00
2019-04-22T18:53:18.900Z,31.93
2019-04-22T18:55:55.492Z,30.77
2019-04-22T18:58:24.597Z,37.20
2019-04-22T19:00:45.863Z,32.60
2019-04-22T19:03:20.257Z,33.40
2019-04-22T19:06:13.104Z,35.77
2019-04-22T19:08:36.773Z,31.63
2019-04-22T19:11:13.995Z,31.37
2019-04-22T19:13:56.106Z,30.67
2019-04-22T19:16:27.450Z,31.70
2019-04-22T19:18:50.514Z,35.93
2019-04-22T19:21:23.471Z,35.50
2019-04-22T19:23:51.983Z,32.30
2019-04-22T19:26:25.587Z,33.07
2019-04-22T19:28:58.880Z,34.00
2019-04-22T19:31:38.728Z,33.87
2019-04-22T19:33:53.778Z,34.20
2019-04-22T19:36:22.717Z,37.87
2019-04-22T19:38:52.674Z,39.40
2019-04-22T19:43:56.926Z,34.47
2019-04-22T19:46:24.590Z,33.27
2019-04-22T19:49:05.119Z,32.40
2019-04-22T19:51:37.020Z,36.50
2019-04-22T19:54:01.475Z,34.17
2019-04-22T19:56:22.741Z,36.00
2019-04-22T19:58:56.381Z,34.97
2019-04-22T20:01:47.265Z,32.77
2019-04-22T20:07:11.704Z,38.60
2019-04-22T20:09:48.120Z,39.13
2019-04-22T20:12:10.658Z,35.80
2019-04-22T20:14:44.968Z,37.40
2019-04-22T20:17:23.270Z,33.57
2019-04-22T20:22:17.868Z,34.40
2019-04-22T20:24:43.512Z,41.23
2019-04-22T20:27:23.776Z,33.67
2019-04-22T20:29:56.398Z,39.17
2019-04-22T20:32:22.110Z,35.60
2019-04-22T20:34:57.906Z,38.50
2019-04-22T20:39:52.957Z,36.93
2019-04-22T20:42:48.370Z,33.43
2019-04-22T20:45:04.213Z,34.80
2019-04-22T20:47:29.199Z,36.40
2019-04-22T20:49:58.676Z,36.17
2019-04-22T20:52:43.539Z,34.90
2019-04-22T20:55:02.642Z,36.40
2019-04-22T20:57:34.835Z,33.67
2019-04-22T21:00:02.199Z,35.77
2019-04-22T21:02:31.275Z,33.53
2019-04-22T21:04:57.100Z,34.70
2019-04-22T21:07:32.054Z,34.27
2019-04-22T21:10:08.370Z,33.00
2019-04-22T21:12:33.680Z,34.47
2019-04-22T21:15:12.516Z,35.27
2019-04-22T21:17:45.961Z,33.03
2019-04-22T21:20:22.021Z,35.57
2019-04-22T21:22:48.245Z,32.33
2019-04-22T21:25:12.449Z,33.63
2019-04-22T21:27:51.008Z,31.67
2019-04-22T21:30:21.231Z,31.50
2019-04-22T21:32:49.399Z,35.80
2019-04-22T21:35:45.578Z,33.33
2019-04-22T21:37:57.981Z,32.50
2019-04-22T21:40:30.120Z,32.67
2019-04-22T21:42:59.548Z,33.60
2019-04-22T21:45:23.787Z,33.30
2019-04-22T21:47:57.699Z,34.50
2019-04-22T21:50:41.343Z,35.80
2019-04-22T21:53:08.803Z,32.27
2019-04-22T21:55:37.598Z,32.83
2019-04-22T21:58:14.840Z,30.67
2019-04-22T22:01:12.998Z,31.37
2019-04-22T22:03:38.658Z,35.23
2019-04-22T22:06:00.273Z,34.90
2019-04-22T22:08:40.632Z,33.57
2019-04-22T22:11:11.296Z,34.37
2019-04-22T22:13:39.233Z,30.97
2019-04-22T22:16:06.710Z,31.00
2019-04-22T22:18:34.944Z,32.97
2019-04-22T22:21:35.913Z,31.00
2019-04-22T22:23:42.381Z,33.73
2019-04-22T22:26:09.760Z,38.60
2019-04-22T22:29:02.084Z,35.30
2019-04-22T22:31:26.979Z,31.93
2019-04-22T22:33:54.391Z,35.57
2019-04-22T22:36:16.259Z,31.73
2019-04-22T22:38:46.883Z,32.67
2019-04-22T22:41:01.707Z,33.83
2019-04-22T22:43:35.867Z,31.37
2019-04-22T22:46:15.003Z,31.33
2019-04-22T22:48:59.795Z,30.23
2019-04-22T22:51:34.234Z,31.17
2019-04-22T22:53:58.138Z,30.07
2019-04-22T22:56:26.855Z,30.07
2019-04-22T22:59:00.258Z,32.17
2019-04-22T23:01:34.933Z,34.80
2019-04-22T23:04:03.656Z,31.83
2019-04-22T23:06:39.086Z,33.70
2019-04-22T23:09:04.250Z,33.43
2019-04-22T23:11:52.553Z,30.57
2019-04-22T23:14:11.904Z,33.40
2019-04-22T23:16:25.549Z,34.70
2019-04-22T23:19:06.852Z,32.80
2019-04-22T23:21:41.638Z,31.47
2019-04-22T23:24:44.860Z,33.73
2019-04-22T23:27:16.024Z,33.17
2019-04-22T23:30:09.224Z,34.73
2019-04-22T23:32:42.656Z,33.83
2019-04-22T23:35:42.412Z,37.40
2019-04-22T23:38:12.156Z,34.80
2019-04-22T23:40:52.768Z,35.50
2019-04-22T23:45:50.318Z,38.93
2019-04-22T23:48:17.894Z,34.80
2019-04-22T23:50:57.456Z,36.50
2019-04-22T23:56:13.563Z,36.97
2019-04-22T23:58:52.707Z,38.33
